Time;durP1;ratioP1;P1;durP2;ratioP2;P2;SDS_P1;SDS_P2;PMS_P1;PMS_P2;Temp;Humidity;BMP_temperature;BMP_pressure;BME280_temperature;BME280_humidity;BME280_pressure;Samples;Min_cycle;Max_cycle;Signal;HPM_P1;HPM_P2
2024/04/15 00:01:00;;;;;;;234.32;64.00;;;;;;;;;;5342703;26;20223;-41
2024/04/15 00:03:25;;;;;;;230.57;61.40;;;;;;;;;;5342455;26;20614;-41
2024/04/15 00:05:51;;;;;;;237.57;70.07;;;;;;;;;;5342264;26;20461;-41
2024/04/15 00:08:17;;;;;;;235.60;63.80;;;;;;;;;;5342663;26;20557;-41
2024/04/15 00:10:43;;;;;;;230.50;61.30;;;;;;;;;;5342490;26;20461;-41
2024/04/15 00:13:09;;;;;;;237.55;67.78;;;;;;;;;;5342507;26;20462;-41
2024/04/15 00:15:35;;;;;;;233.97;65.37;;;;;;;;;;5342208;26;20563;-41
2024/04/15 00:18:01;;;;;;;235.30;66.27;;;;;;;;;;5341599;26;20453;-41
2024/04/15 00:20:29;;;;;;;235.93;67.25;;;;;;;;;;5342259;26;20457;-41
2024/04/15 00:22:55;;;;;;;234.85;64.57;;;;;;;;;;5341058;26;20222;-41
2024/04/15 00:25:21;;;;;;;234.30;67.90;;;;;;;;;;5341927;26;20686;-41
2024/04/15 00:27:47;;;;;;;231.27;62.65;;;;;;;;;;5343609;26;20449;-41
2024/04/15 00:30:13;;;;;;;233.77;66.87;;;;;;;;;;5345600;26;20223;-41
2024/04/15 00:32:39;;;;;;;231.07;63.50;;;;;;;;;;5345561;26;20513;-41
2024/04/15 00:35:05;;;;;;;235.30;66.93;;;;;;;;;;5345463;26;20989;-41
2024/04/15 00:37:31;;;;;;;234.25;65.38;;;;;;;;;;5345716;26;20453;-41
2024/04/15 00:39:57;;;;;;;234.87;66.47;;;;;;;;;;5345873;26;20316;-41
2024/04/15 00:42:23;;;;;;;233.33;66.40;;;;;;;;;;5345692;26;20457;-41
2024/04/15 00:44:50;;;;;;;236.98;68.40;;;;;;;;;;5345628;26;21249;-41
2024/04/15 00:47:17;;;;;;;233.48;65.65;;;;;;;;;;5344849;26;20336;-41
2024/04/15 00:49:43;;;;;;;230.50;61.60;;;;;;;;;;5345609;26;20226;-41
2024/04/15 00:52:09;;;;;;;231.43;63.72;;;;;;;;;;5345257;26;20312;-41
2024/04/15 00:54:36;;;;;;;232.30;64.57;;;;;;;;;;5345647;26;20609;-41
2024/04/15 00:57:03;;;;;;;233.25;65.20;;;;;;;;;;5344934;26;20224;-41
2024/04/15 00:59:29;;;;;;;231.55;62.60;;;;;;;;;;5345214;26;20265;-41
2024/04/15 01:01:55;;;;;;;234.82;65.75;;;;;;;;;;5344602;26;20327;-41
2024/04/15 01:04:21;;;;;;;232.40;65.53;;;;;;;;;;5345176;26;20324;-41
2024/04/15 01:06:48;;;;;;;236.70;68.07;;;;;;;;;;5344152;26;20623;-41
2024/04/15 01:09:14;;;;;;;234.68;66.57;;;;;;;;;;5344660;26;20453;-41
2024/04/15 01:11:40;;;;;;;235.77;68.20;;;;;;;;;;5346166;26;20219;-41
2024/04/15 01:14:06;;;;;;;238.40;70.88;;;;;;;;;;5345073;26;21029;-41
2024/04/15 01:16:38;;;;;;;237.80;70.30;;;;;;;;;;5344630;26;20223;-41
2024/04/15 01:19:04;;;;;;;235.20;67.90;;;;;;;;;;5339592;26;20449;-41
2024/04/15 01:21:30;;;;;;;239.48;72.80;;;;;;;;;;5347155;26;20296;-41
2024/04/15 01:23:57;;;;;;;233.55;66.25;;;;;;;;;;5351087;26;20225;-41
2024/04/15 01:26:23;;;;;;;233.40;65.40;;;;;;;;;;5345175;26;20266;-41
2024/04/15 01:28:49;;;;;;;235.60;67.80;;;;;;;;;;5345110;26;20695;-41
2024/04/15 01:31:15;;;;;;;233.07;66.40;;;;;;;;;;5344843;26;20465;-41
2024/04/15 01:33:41;;;;;;;232.40;66.30;;;;;;;;;;5344652;26;20456;-41
2024/04/15 01:36:07;;;;;;;234.83;67.47;;;;;;;;;;5347558;26;20456;-41
2024/04/15 01:38:33;;;;;;;234.85;68.13;;;;;;;;;;5343868;26;20449;-41
2024/04/15 01:40:59;;;;;;;231.00;64.25;;;;;;;;;;5344703;26;20226;-41
2024/04/15 01:43:25;;;;;;;231.87;65.10;;;;;;;;;;5344727;26;20219;-41
2024/04/15 01:45:51;;;;;;;234.80;68.50;;;;;;;;;;5344672;26;20507;-41
2024/04/15 01:48:17;;;;;;;231.17;64.10;;;;;;;;;;5344702;26;20465;-41
2024/04/15 01:50:43;;;;;;;231.77;65.70;;;;;;;;;;5344759;26;20509;-41
2024/04/15 01:53:11;;;;;;;232.77;65.70;;;;;;;;;;5344476;26;20469;-41
2024/04/15 01:55:37;;;;;;;230.90;62.88;;;;;;;;;;5344520;26;20507;-41
2024/04/15 01:58:03;;;;;;;235.80;69.57;;;;;;;;;;5344321;26;20706;-41
2024/04/15 02:00:29;;;;;;;232.82;63.28;;;;;;;;;;5344464;26;20214;-41
2024/04/15 02:02:55;;;;;;;236.97;69.53;;;;;;;;;;5344555;26;20281;-41
2024/04/15 02:05:24;;;;;;;232.60;65.17;;;;;;;;;;5344605;26;20563;-41
2024/04/15 02:07:49;;;;;;;231.23;63.13;;;;;;;;;;5337774;26;20499;-41
2024/04/15 02:10:15;;;;;;;236.83;68.80;;;;;;;;;;5344836;26;20301;-40
2024/04/15 02:12:41;;;;;;;231.87;63.37;;;;;;;;;;5350652;26;20503;-41
2024/04/15 02:15:07;;;;;;;240.50;72.10;;;;;;;;;;5349767;26;20522;-41
2024/04/15 02:17:33;;;;;;;233.40;66.43;;;;;;;;;;5356088;26;20268;-41
2024/04/15 02:19:59;;;;;;;236.15;69.47;;;;;;;;;;5343785;26;20453;-41
2024/04/15 02:22:25;;;;;;;237.10;70.00;;;;;;;;;;5344050;26;20286;-41
2024/04/15 02:24:51;;;;;;;235.50;69.30;;;;;;;;;;5343995;26;20519;-41
2024/04/15 02:27:17;;;;;;;235.70;68.17;;;;;;;;;;5343581;26;20508;-41
2024/04/15 02:29:43;;;;;;;236.00;69.33;;;;;;;;;;5343902;26;20501;-42
2024/04/15 02:32:09;;;;;;;232.57;65.10;;;;;;;;;;5343816;26;20457;-41
2024/04/15 02:34:35;;;;;;;233.75;66.45;;;;;;;;;;5344825;26;20461;-41
2024/04/15 02:37:01;;;;;;;235.40;67.15;;;;;;;;;;5343599;26;20223;-41
2024/04/15 02:39:27;;;;;;;233.27;65.07;;;;;;;;;;5343823;26;20238;-41
2024/04/15 02:41:53;;;;;;;232.23;64.77;;;;;;;;;;5343557;26;20505;-41
2024/04/15 02:44:19;;;;;;;233.37;66.43;;;;;;;;;;5343554;26;20461;-41
2024/04/15 02:46:45;;;;;;;230.83;64.63;;;;;;;;;;5343275;26;20460;-41
2024/04/15 02:49:11;;;;;;;236.45;69.30;;;;;;;;;;5342315;26;20561;-41
2024/04/15 02:51:37;;;;;;;234.93;67.77;;;;;;;;;;5343202;26;20548;-41
2024/04/15 02:54:03;;;;;;;234.27;66.70;;;;;;;;;;5343442;26;20449;-41
2024/04/15 02:56:29;;;;;;;235.65;67.55;;;;;;;;;;5343179;26;20437;-40
2024/04/15 02:58:55;;;;;;;235.97;68.27;;;;;;;;;;5344600;26;20645;-41
2024/04/15 03:01:21;;;;;;;231.83;62.17;;;;;;;;;;5343390;26;20542;-41
2024/04/15 03:03:47;;;;;;;231.83;63.37;;;;;;;;;;5343657;26;20524;-40
2024/04/15 03:06:13;;;;;;;238.63;71.90;;;;;;;;;;5343267;26;20457;-40
2024/04/15 03:08:39;;;;;;;232.97;64.50;;;;;;;;;;5343463;26;20852;-41
2024/04/15 03:11:09;;;;;;;240.02;72.18;;;;;;;;;;5343648;26;20562;-40
2024/04/15 03:13:36;;;;;;;236.00;68.75;;;;;;;;;;5350600;26;20844;-40
2024/04/15 03:16:01;;;;;;;238.25;71.20;;;;;;;;;;5342978;26;20654;-41
2024/04/15 03:18:27;;;;;;;234.33;67.27;;;;;;;;;;5343380;26;20640;-41
2024/04/15 03:20:54;;;;;;;233.47;66.17;;;;;;;;;;5343054;26;20546;-41
2024/04/15 03:23:20;;;;;;;235.35;67.70;;;;;;;;;;5343289;26;20541;-41
2024/04/15 03:25:45;;;;;;;235.63;68.30;;;;;;;;;;5342855;26;20269;-41
2024/04/15 03:28:11;;;;;;;230.63;61.77;;;;;;;;;;5342972;26;20517;-40
2024/04/15 03:30:37;;;;;;;233.40;66.43;;;;;;;;;;5343106;26;20521;-40
2024/04/15 03:33:04;;;;;;;233.52;66.25;;;;;;;;;;5343605;26;20575;-40
2024/04/15 03:35:30;;;;;;;237.20;67.72;;;;;;;;;;5342701;26;20294;-41
2024/04/15 03:37:56;;;;;;;234.77;68.28;;;;;;;;;;5342895;26;20287;-40
2024/04/15 03:40:22;;;;;;;240.80;69.97;;;;;;;;;;5341316;26;20219;-41
2024/04/15 03:42:48;;;;;;;232.77;63.80;;;;;;;;;;5345373;26;20583;-40
2024/04/15 03:45:14;;;;;;;241.60;71.40;;;;;;;;;;5342400;26;20461;-40
2024/04/15 03:47:40;;;;;;;235.43;66.57;;;;;;;;;;5345274;26;20441;-42
2024/04/15 03:50:06;;;;;;;233.77;66.17;;;;;;;;;;5342580;26;20925;-40
2024/04/15 03:52:32;;;;;;;234.75;66.50;;;;;;;;;;5341860;26;20497;-41
2024/04/15 03:54:58;;;;;;;232.70;64.97;;;;;;;;;;5342672;26;20219;-40
2024/04/15 03:57:24;;;;;;;234.07;63.22;;;;;;;;;;5333745;26;20460;-40
2024/04/15 03:59:50;;;;;;;233.47;64.17;;;;;;;;;;5342855;26;20222;-41
2024/04/15 04:02:16;;;;;;;236.10;66.50;;;;;;;;;;5343396;26;20517;-40
2024/04/15 04:04:42;;;;;;;234.50;64.17;;;;;;;;;;5345907;26;20847;-41
2024/04/15 04:07:08;;;;;;;236.00;66.87;;;;;;;;;;5344216;26;20445;-40
2024/04/15 04:09:34;;;;;;;236.25;68.68;;;;;;;;;;5345612;26;20532;-41
2024/04/15 04:12:00;;;;;;;232.13;61.90;;;;;;;;;;5345368;26;20219;-41
2024/04/15 04:14:26;;;;;;;230.87;62.37;;;;;;;;;;5345952;26;20570;-41
2024/04/15 04:16:51;;;;;;;230.80;61.87;;;;;;;;;;5345660;26;20796;-40
2024/04/15 04:19:21;;;;;;;230.37;61.70;;;;;;;;;;5345581;26;20574;-41
2024/04/15 04:21:47;;;;;;;232.95;66.60;;;;;;;;;;5345741;26;20452;-40
2024/04/15 04:24:13;;;;;;;234.67;66.37;;;;;;;;;;5345365;26;20277;-41
2024/04/15 04:26:39;;;;;;;236.27;66.53;;;;;;;;;;5344797;26;20456;-41
2024/04/15 04:29:07;;;;;;;234.77;64.40;;;;;;;;;;5345428;26;20571;-41
2024/04/15 04:31:33;;;;;;;230.05;61.47;;;;;;;;;;5345676;26;20453;-41
2024/04/15 04:33:59;;;;;;;230.77;62.23;;;;;;;;;;5345433;26;20230;-42
2024/04/15 04:36:25;;;;;;;233.25;65.38;;;;;;;;;;5352543;26;21103;-41
2024/04/15 04:38:51;;;;;;;233.90;67.68;;;;;;;;;;5345717;26;20593;-41
2024/04/15 04:41:17;;;;;;;230.77;62.07;;;;;;;;;;5345381;26;20266;-40
2024/04/15 04:43:43;;;;;;;230.25;62.13;;;;;;;;;;5345372;26;20807;-41
2024/04/15 04:46:10;;;;;;;231.47;64.40;;;;;;;;;;5345171;26;20274;-41
2024/04/15 04:48:36;;;;;;;231.25;63.80;;;;;;;;;;5345112;26;20441;-41
2024/04/15 04:51:09;;;;;;;233.03;64.33;;;;;;;;;;5340045;26;20268;-41
2024/04/15 04:53:35;;;;;;;230.48;61.45;;;;;;;;;;5344892;26;20520;-40
2024/04/15 04:56:10;;;;;;;231.32;62.58;;;;;;;;;;5344940;26;20225;-40
2024/04/15 04:58:37;;;;;;;233.52;65.13;;;;;;;;;;5339494;26;20291;-41
2024/04/15 05:01:09;;;;;;;232.85;62.92;;;;;;;;;;5345497;26;20222;-41
2024/04/15 05:03:36;;;;;;;235.38;68.15;;;;;;;;;;5345033;26;20265;-41
2024/04/15 05:06:08;;;;;;;233.63;64.30;;;;;;;;;;5344296;26;20305;-40
2024/04/15 05:08:34;;;;;;;234.65;66.75;;;;;;;;;;5344891;26;20285;-41
2024/04/15 05:11:00;;;;;;;231.85;61.90;;;;;;;;;;5344973;26;20616;-41
2024/04/15 05:13:26;;;;;;;229.80;64.90;;;;;;;;;;5349966;26;20230;-41
2024/04/15 05:15:52;;;;;;;235.25;68.63;;;;;;;;;;5344379;26;20912;-41
2024/04/15 05:18:18;;;;;;;233.40;65.93;;;;;;;;;;5344701;26;20266;-41
2024/04/15 05:20:44;;;;;;;235.17;66.43;;;;;;;;;;5344540;26;21044;-41
2024/04/15 05:23:10;;;;;;;235.07;67.23;;;;;;;;;;5345072;26;20850;-42
2024/04/15 05:25:39;;;;;;;232.37;65.60;;;;;;;;;;5344561;26;20810;-40
2024/04/15 05:28:05;;;;;;;232.27;63.65;;;;;;;;;;5340139;26;20460;-40
2024/04/15 05:30:31;;;;;;;231.30;64.00;;;;;;;;;;5344749;26;20331;-41
2024/04/15 05:32:57;;;;;;;237.87;72.87;;;;;;;;;;5344296;26;20468;-41
2024/04/15 05:35:23;;;;;;;235.77;68.93;;;;;;;;;;5344137;26;21107;-41
2024/04/15 05:37:48;;;;;;;237.47;72.03;;;;;;;;;;5344272;26;21033;-41
2024/04/15 05:40:14;;;;;;;234.20;66.60;;;;;;;;;;5344441;26;20843;-41
2024/04/15 05:42:40;;;;;;;235.00;69.37;;;;;;;;;;5344170;26;20815;-41
2024/04/15 05:45:06;;;;;;;239.20;71.60;;;;;;;;;;5344525;26;20506;-42
2024/04/15 05:47:32;;;;;;;238.85;74.57;;;;;;;;;;5343838;26;20505;-41
2024/04/15 05:49:58;;;;;;;231.17;64.57;;;;;;;;;;5344340;26;20226;-41
2024/04/15 05:52:25;;;;;;;234.63;69.60;;;;;;;;;;5344193;26;20471;-41
2024/04/15 05:54:51;;;;;;;232.32;64.97;;;;;;;;;;5344586;26;20460;-40
2024/04/15 05:57:17;;;;;;;235.93;71.40;;;;;;;;;;5343456;26;20223;-40
2024/04/15 05:59:43;;;;;;;231.60;65.17;;;;;;;;;;5344492;26;20516;-40
2024/04/15 06:02:09;;;;;;;234.70;69.77;;;;;;;;;;5344036;26;20583;-40
2024/04/15 06:04:35;;;;;;;234.37;68.70;;;;;;;;;;5344257;26;20512;-41
2024/04/15 06:07:04;;;;;;;229.15;63.50;;;;;;;;;;5342795;26;20493;-41
2024/04/15 06:09:30;;;;;;;231.75;65.80;;;;;;;;;;5344372;26;20647;-41
2024/04/15 06:11:56;;;;;;;232.98;66.85;;;;;;;;;;5344042;26;20219;-40
2024/04/15 06:14:23;;;;;;;234.90;70.50;;;;;;;;;;5355821;26;20223;-41
2024/04/15 06:16:49;;;;;;;233.10;65.72;;;;;;;;;;5343355;26;20468;-41
2024/04/15 06:19:15;;;;;;;233.35;66.47;;;;;;;;;;5343976;26;20234;-41
2024/04/15 06:21:42;;;;;;;236.17;70.27;;;;;;;;;;5344141;26;20297;-41
2024/04/15 06:24:09;;;;;;;232.23;64.82;;;;;;;;;;5343725;26;20509;-40
2024/04/15 06:26:35;;;;;;;234.85;69.80;;;;;;;;;;5342517;26;20230;-40
2024/04/15 06:29:01;;;;;;;233.23;66.82;;;;;;;;;;5344309;26;20591;-40
2024/04/15 06:31:28;;;;;;;234.20;68.63;;;;;;;;;;5344145;26;20286;-41
2024/04/15 06:33:54;;;;;;;232.88;67.65;;;;;;;;;;5343898;26;20280;-41
2024/04/15 06:36:19;;;;;;;231.77;65.10;;;;;;;;;;5343455;26;20238;-40
2024/04/15 06:38:46;;;;;;;233.27;67.33;;;;;;;;;;5343758;26;20450;-40
2024/04/15 06:41:12;;;;;;;233.40;64.80;;;;;;;;;;5343754;26;20996;-42
2024/04/15 06:43:38;;;;;;;233.30;65.88;;;;;;;;;;5343901;26;20269;-40
2024/04/15 06:46:04;;;;;;;234.97;68.43;;;;;;;;;;5338850;26;20230;-43
2024/04/15 06:48:30;;;;;;;235.83;69.83;;;;;;;;;;5347539;26;20449;-41
2024/04/15 06:50:56;;;;;;;237.23;70.90;;;;;;;;;;5343031;26;20859;-40
2024/04/15 06:53:22;;;;;;;235.70;67.63;;;;;;;;;;5349310;26;20453;-41
2024/04/15 06:55:48;;;;;;;234.75;71.95;;;;;;;;;;5341901;26;20513;-41
2024/04/15 06:58:14;;;;;;;234.40;68.47;;;;;;;;;;5342581;26;20222;-40
2024/04/15 07:00:40;;;;;;;235.10;70.40;;;;;;;;;;5342355;26;21103;-41
2024/04/15 07:03:06;;;;;;;236.27;69.13;;;;;;;;;;5342466;26;20450;-41
2024/04/15 07:05:32;;;;;;;234.30;68.97;;;;;;;;;;5346997;26;20577;-41
2024/04/15 07:08:00;;;;;;;235.95;69.03;;;;;;;;;;5343327;26;21043;-41
2024/04/15 07:10:26;;;;;;;236.35;70.20;;;;;;;;;;5334849;26;20218;-41
2024/04/15 07:12:52;;;;;;;234.07;67.83;;;;;;;;;;5343330;26;20322;-41
2024/04/15 07:15:18;;;;;;;237.80;73.27;;;;;;;;;;5343010;26;20465;-41
2024/04/15 07:17:44;;;;;;;230.70;66.20;;;;;;;;;;5343215;26;20560;-41
2024/04/15 07:20:10;;;;;;;231.77;65.40;;;;;;;;;;5343140;26;20710;-41
2024/04/15 07:22:36;;;;;;;235.60;70.17;;;;;;;;;;5343531;26;20464;-41
2024/04/15 07:25:02;;;;;;;236.43;73.23;;;;;;;;;;5337516;26;20451;-42
2024/04/15 07:27:32;;;;;;;234.82;67.10;;;;;;;;;;5342800;26;20499;-40
2024/04/15 07:29:58;;;;;;;234.70;68.88;;;;;;;;;;5342950;26;20570;-41
2024/04/15 07:32:24;;;;;;;235.47;68.70;;;;;;;;;;5342946;26;20238;-41
2024/04/15 07:34:50;;;;;;;239.90;72.30;;;;;;;;;;5342432;26;20461;-41
2024/04/15 07:37:16;;;;;;;238.87;71.17;;;;;;;;;;5343612;26;20457;-41
2024/04/15 07:39:42;;;;;;;239.10;70.87;;;;;;;;;;5346154;26;20465;-40
2024/04/15 07:42:09;;;;;;;244.00;74.38;;;;;;;;;;5347703;26;20518;-40
2024/04/15 07:44:35;;;;;;;239.25;73.72;;;;;;;;;;5346327;26;20257;-42
2024/04/15 07:47:01;;;;;;;241.63;75.32;;;;;;;;;;5345849;26;20226;-41
2024/04/15 07:49:27;;;;;;;246.97;82.33;;;;;;;;;;5346294;26;20260;-41
2024/04/15 07:51:53;;;;;;;246.87;80.60;;;;;;;;;;5346020;26;20508;-41
2024/04/15 07:54:19;;;;;;;245.77;79.10;;;;;;;;;;5346304;26;20448;-41
2024/04/15 07:56:45;;;;;;;243.07;77.23;;;;;;;;;;5345497;26;20964;-41
2024/04/15 07:59:11;;;;;;;246.63;80.47;;;;;;;;;;5346278;26;20980;-42
2024/04/15 08:01:37;;;;;;;244.87;78.13;;;;;;;;;;5342519;26;20468;-43
2024/04/15 08:04:03;;;;;;;246.67;80.53;;;;;;;;;;5343148;26;20600;-41
2024/04/15 08:06:29;;;;;;;249.73;82.37;;;;;;;;;;5344807;26;20497;-41
2024/04/15 08:08:55;;;;;;;246.80;82.07;;;;;;;;;;5344948;26;20872;-41
2024/04/15 08:11:21;;;;;;;250.27;84.77;;;;;;;;;;5345390;26;20496;-41
2024/04/15 08:13:47;;;;;;;242.43;77.57;;;;;;;;;;5345596;26;20472;-41
2024/04/15 08:16:13;;;;;;;245.87;77.83;;;;;;;;;;5345152;26;20536;-41
2024/04/15 08:18:39;;;;;;;252.40;90.70;;;;;;;;;;5345820;26;20465;-41
2024/04/15 08:21:04;;;;;;;244.43;78.23;;;;;;;;;;5347280;26;20566;-41
2024/04/15 08:23:30;;;;;;;247.83;81.77;;;;;;;;;;5346145;26;20452;-41
2024/04/15 08:25:57;;;;;;;244.83;80.60;;;;;;;;;;5345332;26;20995;-41
2024/04/15 08:28:24;;;;;;;243.77;79.03;;;;;;;;;;5345241;26;20579;-41
2024/04/15 08:30:50;;;;;;;247.90;84.43;;;;;;;;;;5345986;26;20973;-41
2024/04/15 08:33:16;;;;;;;248.57;82.80;;;;;;;;;;5359089;26;20567;-41
2024/04/15 08:35:42;;;;;;;247.77;85.67;;;;;;;;;;5345185;26;20471;-41
2024/04/15 08:38:09;;;;;;;250.57;84.93;;;;;;;;;;5345291;26;20575;-41
2024/04/15 08:40:35;;;;;;;251.83;87.93;;;;;;;;;;5345604;26;21075;-41
2024/04/15 08:43:03;;;;;;;248.27;84.33;;;;;;;;;;5344682;26;20504;-41
2024/04/15 08:45:30;;;;;;;249.73;85.57;;;;;;;;;;5343061;26;20837;-41
2024/04/15 08:47:57;;;;;;;250.17;89.27;;;;;;;;;;5344751;26;20509;-41
2024/04/15 08:50:25;;;;;;;249.03;82.97;;;;;;;;;;5345438;26;20560;-41
2024/04/15 08:52:52;;;;;;;250.50;84.97;;;;;;;;;;5352013;26;20871;-41
2024/04/15 08:55:18;;;;;;;249.07;82.20;;;;;;;;;;5344992;26;20461;-41
2024/04/15 08:57:48;;;;;;;248.13;83.83;;;;;;;;;;5353492;26;21063;-41
2024/04/15 09:00:18;;;;;;;248.13;82.80;;;;;;;;;;5345345;26;20496;-41
2024/04/15 09:02:45;;;;;;;242.87;78.20;;;;;;;;;;5345697;26;20502;-41
2024/04/15 09:05:11;;;;;;;252.83;87.80;;;;;;;;;;5344673;26;20462;-41
2024/04/15 09:07:37;;;;;;;246.40;83.90;;;;;;;;;;5344634;26;20518;-41
2024/04/15 09:10:03;;;;;;;244.13;78.70;;;;;;;;;;5345008;26;20917;-41
2024/04/15 09:12:44;;;;;;;243.70;81.13;;;;;;;;;;5344687;26;20466;-41
2024/04/15 09:15:11;;;;;;;246.35;82.82;;;;;;;;;;5344599;26;20779;-41
2024/04/15 09:17:37;;;;;;;246.47;82.17;;;;;;;;;;5344686;26;20275;-41
2024/04/15 09:20:03;;;;;;;244.50;80.07;;;;;;;;;;5344845;26;20447;-41
2024/04/15 09:22:33;;;;;;;247.93;80.20;;;;;;;;;;5356918;26;20469;-41
2024/04/15 09:24:59;;;;;;;246.37;81.33;;;;;;;;;;5344619;26;20466;-41
2024/04/15 09:27:25;;;;;;;243.77;78.95;;;;;;;;;;5330740;26;20586;-41
2024/04/15 09:29:58;;;;;;;247.00;84.10;;;;;;;;;;5344814;26;20282;-42
2024/04/15 09:32:24;;;;;;;247.27;84.73;;;;;;;;;;5359067;26;20856;-41
2024/04/15 09:34:54;;;;;;;247.40;84.47;;;;;;;;;;5344027;26;20989;-41
2024/04/15 09:37:20;;;;;;;248.37;83.73;;;;;;;;;;5342710;26;20466;-41
2024/04/15 09:39:46;;;;;;;244.67;80.67;;;;;;;;;;5350020;26;20465;-41
2024/04/15 09:42:15;;;;;;;245.83;82.40;;;;;;;;;;5344887;26;20515;-41
2024/04/15 09:44:45;;;;;;;247.27;84.47;;;;;;;;;;5344829;26;20514;-41
2024/04/15 09:47:12;;;;;;;247.57;83.50;;;;;;;;;;5344141;26;20457;-41
2024/04/15 09:49:38;;;;;;;246.87;85.37;;;;;;;;;;5344536;26;21004;-41
2024/04/15 09:52:06;;;;;;;244.43;81.03;;;;;;;;;;5344231;26;20516;-41
2024/04/15 09:54:33;;;;;;;245.53;83.27;;;;;;;;;;5344437;26;20446;-41
2024/04/15 09:57:04;;;;;;;244.53;80.77;;;;;;;;;;5352687;26;21064;-41
2024/04/15 09:59:33;;;;;;;243.23;77.03;;;;;;;;;;5357927;26;20567;-41
2024/04/15 10:02:00;;;;;;;247.40;80.83;;;;;;;;;;5358648;26;20464;-41
2024/04/15 10:04:26;;;;;;;243.57;78.13;;;;;;;;;;5332330;26;20441;-41
2024/04/15 10:06:58;;;;;;;241.90;76.50;;;;;;;;;;5344050;26;20519;-41
2024/04/15 10:09:24;;;;;;;244.43;79.73;;;;;;;;;;5344533;26;20571;-41
2024/04/15 10:11:50;;;;;;;242.05;78.50;;;;;;;;;;5358534;26;20460;-41
2024/04/15 10:14:16;;;;;;;243.30;80.17;;;;;;;;;;5344275;26;20357;-41
2024/04/15 10:16:49;;;;;;;247.30;81.73;;;;;;;;;;5343557;26;20522;-41
2024/04/15 10:19:32;;;;;;;246.07;80.07;;;;;;;;;;5344221;26;20468;-41
2024/04/15 10:21:58;;;;;;;248.00;85.00;;;;;;;;;;5343981;26;20456;-41
2024/04/15 10:24:24;;;;;;;249.50;86.73;;;;;;;;;;5343966;26;20458;-41
2024/04/15 10:26:50;;;;;;;250.40;88.37;;;;;;;;;;5343780;26;20506;-41
2024/04/15 10:29:22;;;;;;;247.50;86.77;;;;;;;;;;5344116;26;20543;-41
2024/04/15 10:31:50;;;;;;;245.47;83.67;;;;;;;;;;5335708;26;20512;-41
2024/04/15 10:34:16;;;;;;;249.63;90.10;;;;;;;;;;5343814;26;21033;-41
2024/04/15 10:36:44;;;;;;;247.00;84.20;;;;;;;;;;5343321;26;20449;-41
2024/04/15 10:39:17;;;;;;;244.40;80.67;;;;;;;;;;5358325;26;20458;-41
2024/04/15 10:41:43;;;;;;;244.17;81.13;;;;;;;;;;5344060;26;20911;-41
2024/04/15 10:44:09;;;;;;;246.87;83.60;;;;;;;;;;5343665;26;20451;-41
2024/04/15 10:46:36;;;;;;;246.87;83.27;;;;;;;;;;5343513;26;21049;-41
2024/04/15 10:49:04;;;;;;;245.53;82.97;;;;;;;;;;5343833;26;20576;-41
2024/04/15 10:51:31;;;;;;;248.97;86.87;;;;;;;;;;5343705;26;20592;-41
2024/04/15 10:53:57;;;;;;;246.97;83.63;;;;;;;;;;5343338;26;20479;-41
2024/04/15 10:56:22;;;;;;;244.33;81.93;;;;;;;;;;5343085;26;20570;-41
2024/04/15 10:58:49;;;;;;;247.63;83.57;;;;;;;;;;5351993;26;20861;-42
2024/04/15 11:01:15;;;;;;;250.80;94.30;;;;;;;;;;5343667;26;20496;-41
2024/04/15 11:03:46;;;;;;;250.03;88.63;;;;;;;;;;5343293;26;20458;-41
2024/04/15 11:06:13;;;;;;;248.43;87.10;;;;;;;;;;5343212;26;20514;-41
2024/04/15 11:08:39;;;;;;;250.77;89.63;;;;;;;;;;5343656;26;20506;-42
2024/04/15 11:11:05;;;;;;;248.53;87.50;;;;;;;;;;5342180;26;20467;-41
2024/04/15 11:13:31;;;;;;;249.07;85.00;;;;;;;;;;5343481;26;21062;-41
2024/04/15 11:15:57;;;;;;;246.43;84.87;;;;;;;;;;5357955;26;21046;-41
2024/04/15 11:18:24;;;;;;;246.20;85.60;;;;;;;;;;5342532;26;21056;-41
2024/04/15 11:20:58;;;;;;;249.77;86.87;;;;;;;;;;5343211;26;20577;-41
2024/04/15 11:23:24;;;;;;;250.10;90.70;;;;;;;;;;5334790;26;20568;-41
2024/04/15 11:25:51;;;;;;;245.47;85.00;;;;;;;;;;5342885;26;20856;-41
2024/04/15 11:28:18;;;;;;;247.40;85.37;;;;;;;;;;5342826;26;20984;-41
2024/04/15 11:30:45;;;;;;;246.73;85.53;;;;;;;;;;5343502;26;20453;-41
2024/04/15 11:33:11;;;;;;;248.33;90.53;;;;;;;;;;5343063;26;20505;-41
2024/04/15 11:35:45;;;;;;;246.37;85.30;;;;;;;;;;5342611;26;21020;-41
2024/04/15 11:38:11;;;;;;;246.40;84.27;;;;;;;;;;5343075;26;20452;-41
2024/04/15 11:40:37;;;;;;;244.90;83.13;;;;;;;;;;5343106;26;20449;-41
2024/04/15 11:43:03;;;;;;;247.67;86.93;;;;;;;;;;5344285;26;20519;-41
2024/04/15 11:45:30;;;;;;;246.33;83.83;;;;;;;;;;5356201;26;20543;-41
2024/04/15 11:47:57;;;;;;;261.10;90.17;;;;;;;;;;5355436;26;20457;-41
2024/04/15 11:50:23;;;;;;;245.80;84.37;;;;;;;;;;5343254;26;20524;-41
2024/04/15 11:52:49;;;;;;;246.40;84.63;;;;;;;;;;5342993;26;20579;-41
2024/04/15 11:55:16;;;;;;;252.77;92.00;;;;;;;;;;5342629;26;20458;-41
2024/04/15 11:57:42;;;;;;;244.90;82.07;;;;;;;;;;5351505;26;20502;-41
2024/04/15 12:00:10;;;;;;;249.97;89.30;;;;;;;;;;5342713;26;21007;-40
2024/04/15 12:02:39;;;;;;;247.27;88.17;;;;;;;;;;5342444;26;20469;-41
2024/04/15 12:05:06;;;;;;;248.53;85.27;;;;;;;;;;5342262;26;20457;-41
2024/04/15 12:07:32;;;;;;;247.97;85.30;;;;;;;;;;5350452;26;20439;-41
2024/04/15 12:09:58;;;;;;;245.67;83.53;;;;;;;;;;5348971;26;20521;-41
2024/04/15 12:12:24;;;;;;;250.53;89.73;;;;;;;;;;5343204;26;20528;-41
2024/04/15 12:14:50;;;;;;;244.47;82.37;;;;;;;;;;5342321;26;20809;-41
2024/04/15 12:17:17;;;;;;;248.80;86.37;;;;;;;;;;5340459;26;21061;-41
2024/04/15 12:19:43;;;;;;;246.27;84.67;;;;;;;;;;5342057;26;20453;-41
2024/04/15 12:22:09;;;;;;;248.87;85.37;;;;;;;;;;5352661;26;20503;-41
2024/04/15 12:24:35;;;;;;;246.87;84.33;;;;;;;;;;5345138;26;21048;-41
2024/04/15 12:27:01;;;;;;;242.70;82.27;;;;;;;;;;5344714;26;20524;-41
2024/04/15 12:29:27;;;;;;;247.67;83.43;;;;;;;;;;5344820;26;21021;-42
2024/04/15 12:31:53;;;;;;;247.00;88.47;;;;;;;;;;5345436;26;20515;-41
2024/04/15 12:34:19;;;;;;;250.90;85.03;;;;;;;;;;5345960;26;20511;-41
2024/04/15 12:36:45;;;;;;;247.10;82.57;;;;;;;;;;5344804;26;21400;-41
2024/04/15 12:39:11;;;;;;;243.47;80.43;;;;;;;;;;5345532;26;20514;-41
2024/04/15 12:41:37;;;;;;;245.07;83.07;;;;;;;;;;5345547;26;20458;-41
2024/04/15 12:44:03;;;;;;;243.17;79.37;;;;;;;;;;5345756;26;20465;-41
2024/04/15 12:46:29;;;;;;;244.53;81.60;;;;;;;;;;5345186;26;20445;-41
2024/04/15 12:48:56;;;;;;;242.47;79.83;;;;;;;;;;5341311;26;20459;-41
2024/04/15 12:51:22;;;;;;;240.55;77.72;;;;;;;;;;5346634;26;20505;-41
2024/04/15 12:53:48;;;;;;;239.45;77.78;;;;;;;;;;5345069;26;20343;-41
2024/04/15 12:56:14;;;;;;;243.40;79.23;;;;;;;;;;5353225;26;20754;-41
2024/04/15 12:58:41;;;;;;;243.30;79.57;;;;;;;;;;5354459;26;20976;-41
2024/04/15 13:01:10;;;;;;;247.77;84.40;;;;;;;;;;5343889;26;20461;-41
2024/04/15 13:03:36;;;;;;;247.43;84.13;;;;;;;;;;5342024;26;20461;-40
2024/04/15 13:06:02;;;;;;;247.23;83.10;;;;;;;;;;5340748;26;21044;-41
2024/04/15 13:08:31;;;;;;;241.47;77.53;;;;;;;;;;5345219;26;20452;-41
2024/04/15 13:10:57;;;;;;;243.90;77.37;;;;;;;;;;5353205;26;20572;-41
2024/04/15 13:13:23;;;;;;;241.73;77.23;;;;;;;;;;5344388;26;21059;-41
2024/04/15 13:15:49;;;;;;;244.73;79.63;;;;;;;;;;5344921;26;20457;-41
2024/04/15 13:18:15;;;;;;;246.70;84.10;;;;;;;;;;5345404;26;20976;-40
2024/04/15 13:20:41;;;;;;;243.37;79.50;;;;;;;;;;5345019;26;20862;-41
2024/04/15 13:23:08;;;;;;;239.37;75.50;;;;;;;;;;5345007;26;20465;-41
2024/04/15 13:25:34;;;;;;;245.03;79.47;;;;;;;;;;5343810;26;20874;-41
2024/04/15 13:28:00;;;;;;;241.57;79.30;;;;;;;;;;5343405;26;20463;-40
2024/04/15 13:30:26;;;;;;;238.37;73.70;;;;;;;;;;5344872;26;20531;-41
2024/04/15 13:32:52;;;;;;;241.25;76.88;;;;;;;;;;5344670;26;20530;-41
2024/04/15 13:35:19;;;;;;;240.80;76.20;;;;;;;;;;5344409;26;20260;-41
2024/04/15 13:37:44;;;;;;;238.80;74.83;;;;;;;;;;5344854;26;20580;-41
2024/04/15 13:40:11;;;;;;;239.17;74.37;;;;;;;;;;5345172;26;20463;-41
2024/04/15 13:42:37;;;;;;;238.97;74.30;;;;;;;;;;5344753;26;20525;-41
2024/04/15 13:45:03;;;;;;;238.43;73.83;;;;;;;;;;5344552;26;20453;-41
2024/04/15 13:47:29;;;;;;;239.97;77.23;;;;;;;;;;5344685;26;20530;-41
2024/04/15 13:49:55;;;;;;;240.03;76.03;;;;;;;;;;5345009;26;20460;-41
2024/04/15 13:52:21;;;;;;;241.67;81.40;;;;;;;;;;5344703;26;20481;-41
2024/04/15 13:54:47;;;;;;;245.50;82.63;;;;;;;;;;5344818;26;20509;-41
2024/04/15 13:57:13;;;;;;;243.57;80.13;;;;;;;;;;5352873;26;20459;-41
2024/04/15 13:59:39;;;;;;;240.77;78.80;;;;;;;;;;5344681;26;20500;-41